sensor_id;sensor_type;location;lat;lon;timestamp;pressure;altitude;pressure_sealevel;temperature;humidity
60583;BME280;46415;47.536;19.066;2023-03-04T00:00:56;100534.97;;;1.38;91.77
60583;BME280;46415;47.536;19.066;2023-03-04T00:03:59;100533.25;;;1.43;90.71
60583;BME280;46415;47.536;19.066;2023-03-04T00:07:01;100529.84;;;1.39;90.93
60583;BME280;46415;47.536;19.066;2023-03-04T00:10:05;100530.69;;;1.46;89.53
60583;BME280;46415;47.536;19.066;2023-03-04T00:13:08;100534.97;;;1.42;89.75
60583;BME280;46415;47.536;19.066;2023-03-04T00:16:11;100526.44;;;1.42;89.08
60583;BME280;46415;47.536;19.066;2023-03-04T00:19:14;100523.03;;;1.38;88.84
60583;BME280;46415;47.536;19.066;2023-03-04T00:22:16;100520.44;;;1.46;89.06
60583;BME280;46415;47.536;19.066;2023-03-04T00:25:19;100519.59;;;1.44;87.60
60583;BME280;46415;47.536;19.066;2023-03-04T00:28:22;100533.25;;;1.41;87.34
60583;BME280;46415;47.536;19.066;2023-03-04T00:31:25;100520.47;;;1.40;87.44
60583;BME280;46415;47.536;19.066;2023-03-04T00:34:28;100517.03;;;1.47;86.36
60583;BME280;46415;47.536;19.066;2023-03-04T00:37:33;100513.66;;;1.42;86.24
60583;BME280;46415;47.536;19.066;2023-03-04T00:40:36;100519.53;;;1.56;84.30
60583;BME280;46415;47.536;19.066;2023-03-04T00:43:39;100515.34;;;1.47;85.10
60583;BME280;46415;47.536;19.066;2023-03-04T00:46:42;100524.72;;;1.47;84.87
60583;BME280;46415;47.536;19.066;2023-03-04T00:49:44;100517.94;;;1.43;85.02
60583;BME280;46415;47.536;19.066;2023-03-04T00:52:47;100513.59;;;1.49;84.33
60583;BME280;46415;47.536;19.066;2023-03-04T00:55:50;100510.25;;;1.41;84.83
60583;BME280;46415;47.536;19.066;2023-03-04T00:58:53;100513.72;;;1.30;84.93
60583;BME280;46415;47.536;19.066;2023-03-04T01:01:55;100506.06;;;1.25;84.55
60583;BME280;46415;47.536;19.066;2023-03-04T01:04:58;100503.38;;;1.51;81.98
60583;BME280;46415;47.536;19.066;2023-03-04T01:08:01;100505.06;;;1.55;81.21
60583;BME280;46415;47.536;19.066;2023-03-04T01:11:05;100493.91;;;1.73;78.29
60583;BME280;46415;47.536;19.066;2023-03-04T01:14:07;100498.09;;;1.81;77.07
60583;BME280;46415;47.536;19.066;2023-03-04T01:17:10;100492.19;;;1.69;77.49
60583;BME280;46415;47.536;19.066;2023-03-04T01:20:13;100487.97;;;1.66;77.85
60583;BME280;46415;47.536;19.066;2023-03-04T01:23:16;100482.78;;;1.74;77.85
60583;BME280;46415;47.536;19.066;2023-03-04T01:26:19;100487.97;;;1.66;78.52
60583;BME280;46415;47.536;19.066;2023-03-04T01:29:22;100480.34;;;1.51;80.14
60583;BME280;46415;47.536;19.066;2023-03-04T01:32:24;100482.94;;;1.45;80.42
60583;BME280;46415;47.536;19.066;2023-03-04T01:35:27;100486.34;;;1.47;80.03
60583;BME280;46415;47.536;19.066;2023-03-04T01:38:31;100476.16;;;1.42;79.52
60583;BME280;46415;47.536;19.066;2023-03-04T01:41:35;100483.78;;;1.44;78.29
60583;BME280;46415;47.536;19.066;2023-03-04T01:44:38;100478.66;;;1.50;76.99
60583;BME280;46415;47.536;19.066;2023-03-04T01:47:46;100473.59;;;1.39;77.61
60583;BME280;46415;47.536;19.066;2023-03-04T01:50:51;100469.41;;;1.29;78.04
60583;BME280;46415;47.536;19.066;2023-03-04T01:53:54;100466.81;;;1.34;77.44
60583;BME280;46415;47.536;19.066;2023-03-04T01:56:57;100452.31;;;1.33;77.16
60583;BME280;46415;47.536;19.066;2023-03-04T02:00:16;100464.19;;;1.46;75.94
60583;BME280;46415;47.536;19.066;2023-03-04T02:03:21;100458.97;;;1.66;71.45
60583;BME280;46415;47.536;19.066;2023-03-04T02:06:24;100456.47;;;1.58;71.49
60583;BME280;46415;47.536;19.066;2023-03-04T02:09:27;100453.00;;;1.67;70.03
60583;BME280;46415;47.536;19.066;2023-03-04T02:12:30;100451.38;;;1.53;70.63
60583;BME280;46415;47.536;19.066;2023-03-04T02:15:33;100450.37;;;1.74;70.35
60583;BME280;46415;47.536;19.066;2023-03-04T02:18:36;100444.34;;;1.81;69.95
60583;BME280;46415;47.536;19.066;2023-03-04T02:21:38;100443.56;;;1.76;69.92
60583;BME280;46415;47.536;19.066;2023-03-04T02:24:53;100437.69;;;1.60;69.15
60583;BME280;46415;47.536;19.066;2023-03-04T02:27:59;100442.78;;;1.63;69.32
60583;BME280;46415;47.536;19.066;2023-03-04T02:31:02;100440.25;;;1.59;69.70
60583;BME280;46415;47.536;19.066;2023-03-04T02:34:10;100429.22;;;1.52;70.03
60583;BME280;46415;47.536;19.066;2023-03-04T02:37:14;100428.31;;;1.58;69.69
60583;BME280;46415;47.536;19.066;2023-03-04T02:40:26;100422.38;;;1.53;70.82
60583;BME280;46415;47.536;19.066;2023-03-04T02:43:30;100418.94;;;1.55;71.36
60583;BME280;46415;47.536;19.066;2023-03-04T02:46:33;100418.22;;;1.37;71.90
60583;BME280;46415;47.536;19.066;2023-03-04T02:49:38;100406.37;;;1.23;72.78
60583;BME280;46415;47.536;19.066;2023-03-04T02:52:41;100402.09;;;1.21;73.12
60583;BME280;46415;47.536;19.066;2023-03-04T02:55:43;100408.97;;;1.17;73.39
60583;BME280;46415;47.536;19.066;2023-03-04T02:58:51;100407.25;;;1.13;72.98
60583;BME280;46415;47.536;19.066;2023-03-04T03:01:53;100408.97;;;1.14;73.11
60583;BME280;46415;47.536;19.066;2023-03-04T03:04:56;100409.81;;;1.16;72.25
60583;BME280;46415;47.536;19.066;2023-03-04T03:08:01;100407.97;;;1.38;71.12
60583;BME280;46415;47.536;19.066;2023-03-04T03:11:04;100407.97;;;1.40;70.92
60583;BME280;46415;47.536;19.066;2023-03-04T03:14:09;100404.53;;;1.44;69.48
60583;BME280;46415;47.536;19.066;2023-03-04T03:17:12;100392.63;;;1.41;70.05
60583;BME280;46415;47.536;19.066;2023-03-04T03:20:16;100396.06;;;1.33;70.51
60583;BME280;46415;47.536;19.066;2023-03-04T03:23:19;100396.16;;;1.25;71.05
60583;BME280;46415;47.536;19.066;2023-03-04T03:26:22;100385.06;;;1.21;72.00
60583;BME280;46415;47.536;19.066;2023-03-04T03:29:25;100383.34;;;1.28;70.65
60583;BME280;46415;47.536;19.066;2023-03-04T03:32:28;100377.28;;;1.40;69.76
60583;BME280;46415;47.536;19.066;2023-03-04T03:35:31;100380.69;;;1.39;69.83
60583;BME280;46415;47.536;19.066;2023-03-04T03:38:33;100380.63;;;1.51;68.95
60583;BME280;46415;47.536;19.066;2023-03-04T03:41:36;100382.41;;;1.41;70.00
60583;BME280;46415;47.536;19.066;2023-03-04T03:44:39;100379.84;;;1.38;70.95
60583;BME280;46415;47.536;19.066;2023-03-04T03:47:42;100381.62;;;1.30;71.59
60583;BME280;46415;47.536;19.066;2023-03-04T03:50:44;100377.41;;;1.21;72.49
60583;BME280;46415;47.536;19.066;2023-03-04T03:53:48;100374.06;;;1.10;73.12
60583;BME280;46415;47.536;19.066;2023-03-04T03:56:50;100379.16;;;1.07;74.01
60583;BME280;46415;47.536;19.066;2023-03-04T03:59:54;100380.97;;;0.95;75.14
60583;BME280;46415;47.536;19.066;2023-03-04T04:02:57;100378.44;;;0.87;76.15
60583;BME280;46415;47.536;19.066;2023-03-04T04:06:01;100380.97;;;0.84;76.86
60583;BME280;46415;47.536;19.066;2023-03-04T04:09:03;100378.47;;;0.81;77.05
60583;BME280;46415;47.536;19.066;2023-03-04T04:12:07;100373.25;;;1.04;75.53
60583;BME280;46415;47.536;19.066;2023-03-04T04:15:10;100376.56;;;1.21;75.16
60583;BME280;46415;47.536;19.066;2023-03-04T04:18:14;100364.66;;;1.17;75.19
60583;BME280;46415;47.536;19.066;2023-03-04T04:21:16;100369.72;;;1.23;74.53
60583;BME280;46415;47.536;19.066;2023-03-04T04:24:19;100373.03;;;1.42;73.23
60583;BME280;46415;47.536;19.066;2023-03-04T04:27:22;100383.22;;;1.45;73.64
60583;BME280;46415;47.536;19.066;2023-03-04T04:30:25;100378.22;;;1.28;74.44
60583;BME280;46415;47.536;19.066;2023-03-04T04:33:27;100380.88;;;1.13;76.23
60583;BME280;46415;47.536;19.066;2023-03-04T04:36:30;100377.50;;;1.06;77.44
60583;BME280;46415;47.536;19.066;2023-03-04T04:39:33;100368.97;;;1.04;78.95
60583;BME280;46415;47.536;19.066;2023-03-04T04:42:36;100370.72;;;0.98;79.53
60583;BME280;46415;47.536;19.066;2023-03-04T04:45:38;100361.38;;;0.94;80.48
60583;BME280;46415;47.536;19.066;2023-03-04T04:48:41;100368.16;;;0.96;80.83
60583;BME280;46415;47.536;19.066;2023-03-04T04:51:44;100367.38;;;0.88;82.12
60583;BME280;46415;47.536;19.066;2023-03-04T04:54:47;100374.16;;;0.92;82.65
60583;BME280;46415;47.536;19.066;2023-03-04T04:57:49;100370.78;;;0.89;83.02
60583;BME280;46415;47.536;19.066;2023-03-04T05:00:55;100360.59;;;0.75;84.52
60583;BME280;46415;47.536;19.066;2023-03-04T05:03:59;100361.38;;;0.92;84.39
60583;BME280;46415;47.536;19.066;2023-03-04T05:07:02;100371.63;;;0.86;84.64
60583;BME280;46415;47.536;19.066;2023-03-04T05:10:05;100368.28;;;0.70;86.02
60583;BME280;46415;47.536;19.066;2023-03-04T05:13:08;100369.97;;;0.77;86.28
60583;BME280;46415;47.536;19.066;2023-03-04T05:16:11;100358.00;;;0.84;86.28
60583;BME280;46415;47.536;19.066;2023-03-04T05:19:15;100360.44;;;1.08;85.45
60583;BME280;46415;47.536;19.066;2023-03-04T05:22:18;100374.06;;;1.12;85.60
60583;BME280;46415;47.536;19.066;2023-03-04T05:25:20;100374.84;;;1.21;85.55
60583;BME280;46415;47.536;19.066;2023-03-04T05:28:24;100374.00;;;1.19;85.52
60583;BME280;46415;47.536;19.066;2023-03-04T05:31:27;100376.59;;;1.15;85.80
60583;BME280;46415;47.536;19.066;2023-03-04T05:34:30;100374.00;;;1.24;85.25
60583;BME280;46415;47.536;19.066;2023-03-04T05:37:32;100377.44;;;1.15;85.61
60583;BME280;46415;47.536;19.066;2023-03-04T05:40:35;100381.72;;;1.07;86.10
60583;BME280;46415;47.536;19.066;2023-03-04T05:43:38;100381.81;;;0.92;87.00
60583;BME280;46415;47.536;19.066;2023-03-04T05:46:44;100379.28;;;0.89;87.47
60583;BME280;46415;47.536;19.066;2023-03-04T05:49:47;100381.00;;;0.81;88.37
60583;BME280;46415;47.536;19.066;2023-03-04T05:52:50;100385.19;;;0.96;88.42
60583;BME280;46415;47.536;19.066;2023-03-04T05:55:53;100388.63;;;0.93;88.42
60583;BME280;46415;47.536;19.066;2023-03-04T05:58:56;100384.38;;;0.91;89.26
60583;BME280;46415;47.536;19.066;2023-03-04T06:02:00;100388.56;;;1.07;88.64
60583;BME280;46415;47.536;19.066;2023-03-04T06:05:04;100389.31;;;1.19;88.23
60583;BME280;46415;47.536;19.066;2023-03-04T06:08:06;100387.66;;;1.15;88.23
60583;BME280;46415;47.536;19.066;2023-03-04T06:11:09;100403.72;;;1.39;87.39
60583;BME280;46415;47.536;19.066;2023-03-04T06:14:12;100407.03;;;1.53;86.63
60583;BME280;46415;47.536;19.066;2023-03-04T06:17:14;100405.25;;;1.62;86.22
60583;BME280;46415;47.536;19.066;2023-03-04T06:20:17;100394.19;;;1.63;86.30
60583;BME280;46415;47.536;19.066;2023-03-04T06:23:20;100401.81;;;1.73;86.14
60583;BME280;46415;47.536;19.066;2023-03-04T06:26:22;100403.41;;;1.83;85.32
60583;BME280;46415;47.536;19.066;2023-03-04T06:29:26;100410.97;;;1.99;84.76
60583;BME280;46415;47.536;19.066;2023-03-04T06:32:28;100407.44;;;2.13;83.61
60583;BME280;46415;47.536;19.066;2023-03-04T06:35:31;100415.81;;;2.28;83.46
60583;BME280;46415;47.536;19.066;2023-03-04T06:38:34;100418.06;;;2.62;81.69
60583;BME280;46415;47.536;19.066;2023-03-04T06:41:37;100409.34;;;2.76;79.73
60583;BME280;46415;47.536;19.066;2023-03-04T06:44:40;100420.22;;;2.95;79.76
60583;BME280;46415;47.536;19.066;2023-03-04T06:47:49;100425.94;;;3.17;78.15
60583;BME280;46415;47.536;19.066;2023-03-04T06:50:51;100425.81;;;3.26;77.18
60583;BME280;46415;47.536;19.066;2023-03-04T06:53:55;100430.09;;;3.27;76.24
60583;BME280;46415;47.536;19.066;2023-03-04T06:56:57;100424.81;;;3.36;75.67
60583;BME280;46415;47.536;19.066;2023-03-04T07:00:00;100421.41;;;3.37;75.31
60583;BME280;46415;47.536;19.066;2023-03-04T07:03:04;100421.31;;;3.43;75.67
60583;BME280;46415;47.536;19.066;2023-03-04T07:06:12;100419.53;;;3.47;75.23
60583;BME280;46415;47.536;19.066;2023-03-04T07:09:15;100411.91;;;3.42;75.75
60583;BME280;46415;47.536;19.066;2023-03-04T07:12:18;100418.75;;;3.43;76.49
60583;BME280;46415;47.536;19.066;2023-03-04T07:15:20;100416.84;;;3.57;76.27
60583;BME280;46415;47.536;19.066;2023-03-04T07:18:23;100420.19;;;3.62;75.85
60583;BME280;46415;47.536;19.066;2023-03-04T07:21:26;100415.00;;;3.65;76.04
60583;BME280;46415;47.536;19.066;2023-03-04T07:24:29;100416.69;;;3.68;75.96
60583;BME280;46415;47.536;19.066;2023-03-04T07:27:32;100421.62;;;3.80;75.49
60583;BME280;46415;47.536;19.066;2023-03-04T07:30:35;100420.69;;;3.86;75.32
60583;BME280;46415;47.536;19.066;2023-03-04T07:33:38;100418.97;;;3.85;74.47
60583;BME280;46415;47.536;19.066;2023-03-04T07:36:41;100418.81;;;3.95;74.56
60583;BME280;46415;47.536;19.066;2023-03-04T07:39:44;100419.53;;;4.03;73.35
60583;BME280;46415;47.536;19.066;2023-03-04T07:42:51;100423.53;;;4.21;72.85
60583;BME280;46415;47.536;19.066;2023-03-04T07:45:58;100408.78;;;4.32;71.30
60583;BME280;46415;47.536;19.066;2023-03-04T07:49:02;100416.16;;;4.50;69.20
60583;BME280;46415;47.536;19.066;2023-03-04T07:52:05;100407.41;;;4.59;68.22
60583;BME280;46415;47.536;19.066;2023-03-04T07:55:09;100408.78;;;4.77;66.23
60583;BME280;46415;47.536;19.066;2023-03-04T07:58:12;100402.59;;;4.87;65.58
60583;BME280;46415;47.536;19.066;2023-03-04T08:01:17;100407.00;;;4.82;64.46
60583;BME280;46415;47.536;19.066;2023-03-04T08:04:20;100406.66;;;4.97;62.69
60583;BME280;46415;47.536;19.066;2023-03-04T08:07:23;100409.69;;;5.17;61.99
60583;BME280;46415;47.536;19.066;2023-03-04T08:10:26;100418.78;;;5.32;61.57
60583;BME280;46415;47.536;19.066;2023-03-04T08:13:28;100416.06;;;5.40;61.05
60583;BME280;46415;47.536;19.066;2023-03-04T08:16:31;100415.16;;;5.42;60.68
60583;BME280;46415;47.536;19.066;2023-03-04T08:19:35;100423.81;;;5.38;60.93
60583;BME280;46415;47.536;19.066;2023-03-04T08:22:37;100417.41;;;5.56;60.20
60583;BME280;46415;47.536;19.066;2023-03-04T08:25:41;100417.28;;;5.62;59.77
60583;BME280;46415;47.536;19.066;2023-03-04T08:28:44;100422.28;;;5.68;59.83
60583;BME280;46415;47.536;19.066;2023-03-04T08:31:48;100413.28;;;5.87;58.10
60583;BME280;46415;47.536;19.066;2023-03-04T08:34:52;100414.25;;;5.82;58.47
60583;BME280;46415;47.536;19.066;2023-03-04T08:37:57;100409.06;;;5.83;58.08
60583;BME280;46415;47.536;19.066;2023-03-04T08:41:11;100423.41;;;5.95;57.59
60583;BME280;46415;47.536;19.066;2023-03-04T08:44:14;100413.91;;;5.97;56.99
60583;BME280;46415;47.536;19.066;2023-03-04T08:47:17;100403.37;;;6.06;56.73
60583;BME280;46415;47.536;19.066;2023-03-04T08:50:19;100404.78;;;6.19;56.35
60583;BME280;46415;47.536;19.066;2023-03-04T08:53:24;100427.75;;;6.27;56.14
60583;BME280;46415;47.536;19.066;2023-03-04T08:56:27;100400.22;;;6.29;56.09
60583;BME280;46415;47.536;19.066;2023-03-04T08:59:30;100396.47;;;6.40;55.65
60583;BME280;46415;47.536;19.066;2023-03-04T09:02:33;100395.47;;;6.46;55.17
60583;BME280;46415;47.536;19.066;2023-03-04T09:05:35;100392.16;;;6.73;54.74
60583;BME280;46415;47.536;19.066;2023-03-04T09:08:38;100384.84;;;6.89;53.83
60583;BME280;46415;47.536;19.066;2023-03-04T09:11:41;100378.34;;;7.05;54.29
60583;BME280;46415;47.536;19.066;2023-03-04T09:14:44;100387.50;;;7.15;52.64
60583;BME280;46415;47.536;19.066;2023-03-04T09:17:47;100378.63;;;7.24;52.82
60583;BME280;46415;47.536;19.066;2023-03-04T09:20:50;100378.34;;;7.33;53.20
60583;BME280;46415;47.536;19.066;2023-03-04T09:23:53;100385.66;;;7.48;53.15
60583;BME280;46415;47.536;19.066;2023-03-04T09:26:56;100372.16;;;7.66;52.66
60583;BME280;46415;47.536;19.066;2023-03-04T09:29:59;100380.72;;;7.68;52.74
60583;BME280;46415;47.536;19.066;2023-03-04T09:33:02;100371.50;;;7.60;53.18
60583;BME280;46415;47.536;19.066;2023-03-04T09:36:05;100377.59;;;7.57;53.57
60583;BME280;46415;47.536;19.066;2023-03-04T09:39:08;100380.72;;;7.68;53.60
60583;BME280;46415;47.536;19.066;2023-03-04T09:42:21;100381.34;;;7.75;52.85
60583;BME280;46415;47.536;19.066;2023-03-04T09:45:48;100381.78;;;7.88;52.95
60583;BME280;46415;47.536;19.066;2023-03-04T09:48:53;100362.81;;;7.89;52.56
60583;BME280;46415;47.536;19.066;2023-03-04T09:55:24;100362.13;;;8.10;51.98
60583;BME280;46415;47.536;19.066;2023-03-04T10:01:54;100370.44;;;8.18;51.22
60583;BME280;46415;47.536;19.066;2023-03-04T10:04:59;100355.13;;;8.12;51.78
60583;BME280;46415;47.536;19.066;2023-03-04T10:17:49;100344.12;;;8.56;51.61
60583;BME280;46415;47.536;19.066;2023-03-04T10:21:00;100334.44;;;8.38;51.30
60583;BME280;46415;47.536;19.066;2023-03-04T10:24:10;100345.13;;;8.52;51.78
60583;BME280;46415;47.536;19.066;2023-03-04T10:27:17;100331.84;;;8.63;50.98
60583;BME280;46415;47.536;19.066;2023-03-04T10:33:48;100345.03;;;8.55;51.99
60583;BME280;46415;47.536;19.066;2023-03-04T10:37:01;100329.00;;;8.46;52.32
60583;BME280;46415;47.536;19.066;2023-03-04T10:40:04;100329.31;;;8.37;52.44
60583;BME280;46415;47.536;19.066;2023-03-04T10:43:20;100316.22;;;8.41;52.78
60583;BME280;46415;47.536;19.066;2023-03-04T10:46:23;100318.19;;;8.58;52.20
60583;BME280;46415;47.536;19.066;2023-03-04T10:49:28;100320.06;;;8.54;51.78
60583;BME280;46415;47.536;19.066;2023-03-04T10:52:45;100305.66;;;8.71;51.55
60583;BME280;46415;47.536;19.066;2023-03-04T10:55:49;100310.28;;;8.63;50.87
60583;BME280;46415;47.536;19.066;2023-03-04T10:58:51;100300.78;;;8.63;50.54
60583;BME280;46415;47.536;19.066;2023-03-04T11:01:54;100310.59;;;8.77;50.02
60583;BME280;46415;47.536;19.066;2023-03-04T11:05:25;100312.53;;;8.72;49.44
60583;BME280;46415;47.536;19.066;2023-03-04T11:08:27;100285.75;;;8.73;49.05
60583;BME280;46415;47.536;19.066;2023-03-04T11:11:37;100300.16;;;8.80;49.32
60583;BME280;46415;47.536;19.066;2023-03-04T11:14:50;100293.72;;;8.90;48.47
60583;BME280;46415;47.536;19.066;2023-03-04T11:17:56;100299.03;;;8.87;49.21
60583;BME280;46415;47.536;19.066;2023-03-04T11:21:00;100295.38;;;9.14;49.08
60583;BME280;46415;47.536;19.066;2023-03-04T11:24:08;100305.91;;;9.10;47.50
60583;BME280;46415;47.536;19.066;2023-03-04T11:27:41;100290.31;;;9.11;47.28
60583;BME280;46415;47.536;19.066;2023-03-04T11:30:49;100276.91;;;9.23;46.77
60583;BME280;46415;47.536;19.066;2023-03-04T11:40:33;100269.25;;;9.20;47.00
60583;BME280;46415;47.536;19.066;2023-03-04T11:43:40;100260.84;;;9.35;47.25
60583;BME280;46415;47.536;19.066;2023-03-04T12:16:56;100209.47;;;10.26;45.56
60583;BME280;46415;47.536;19.066;2023-03-04T12:20:34;100202.81;;;10.20;45.70
60583;BME280;46415;47.536;19.066;2023-03-04T12:24:17;100183.13;;;10.16;45.45
60583;BME280;46415;47.536;19.066;2023-03-04T12:34:37;100168.34;;;10.18;46.15
60583;BME280;46415;47.536;19.066;2023-03-04T12:41:38;100162.19;;;10.01;45.62
60583;BME280;46415;47.536;19.066;2023-03-04T12:48:11;100179.69;;;10.35;45.25
60583;BME280;46415;47.536;19.066;2023-03-04T12:54:52;100164.16;;;10.71;44.11
60583;BME280;46415;47.536;19.066;2023-03-04T12:57:59;100163.41;;;10.50;43.42
60583;BME280;46415;47.536;19.066;2023-03-04T13:01:08;100161.28;;;10.77;43.41
60583;BME280;46415;47.536;19.066;2023-03-04T13:04:22;100163.16;;;10.73;43.45
60583;BME280;46415;47.536;19.066;2023-03-04T13:10:49;100138.78;;;11.12;43.35
60583;BME280;46415;47.536;19.066;2023-03-04T13:17:48;100132.88;;;11.60;42.77
60583;BME280;46415;47.536;19.066;2023-03-04T13:21:06;100117.00;;;11.81;41.45
60583;BME280;46415;47.536;19.066;2023-03-04T13:24:46;100109.47;;;11.93;41.03
60583;BME280;46415;47.536;19.066;2023-03-04T13:31:21;100106.31;;;11.70;40.33
60583;BME280;46415;47.536;19.066;2023-03-04T13:34:47;100100.06;;;11.74;38.85
60583;BME280;46415;47.536;19.066;2023-03-04T13:37:57;100086.91;;;11.77;38.69
60583;BME280;46415;47.536;19.066;2023-03-04T13:41:11;100085.09;;;11.95;38.73
60583;BME280;46415;47.536;19.066;2023-03-04T13:47:43;100073.00;;;11.94;36.63
60583;BME280;46415;47.536;19.066;2023-03-04T13:50:48;100064.41;;;11.76;36.08
60583;BME280;46415;47.536;19.066;2023-03-04T13:53:53;100064.94;;;11.83;36.17
60583;BME280;46415;47.536;19.066;2023-03-04T14:00:02;100069.41;;;11.64;35.56
60583;BME280;46415;47.536;19.066;2023-03-04T14:03:29;100062.19;;;11.69;35.16
60583;BME280;46415;47.536;19.066;2023-03-04T14:06:32;100050.81;;;11.71;35.38
60583;BME280;46415;47.536;19.066;2023-03-04T14:09:35;100056.38;;;12.12;34.72
60583;BME280;46415;47.536;19.066;2023-03-04T14:12:55;100049.78;;;12.82;32.78
60583;BME280;46415;47.536;19.066;2023-03-04T14:15:59;100043.87;;;13.53;31.60
60583;BME280;46415;47.536;19.066;2023-03-04T14:19:04;100060.69;;;14.84;29.61
60583;BME280;46415;47.536;19.066;2023-03-04T14:25:27;100054.31;;;13.67;31.15
60583;BME280;46415;47.536;19.066;2023-03-04T14:28:30;100040.13;;;13.71;31.90
60583;BME280;46415;47.536;19.066;2023-03-04T14:31:34;100047.78;;;14.15;30.72
60583;BME280;46415;47.536;19.066;2023-03-04T14:34:37;100046.16;;;14.80;30.42
60583;BME280;46415;47.536;19.066;2023-03-04T14:38:05;100055.84;;;15.43;29.91
60583;BME280;46415;47.536;19.066;2023-03-04T14:47:35;100054.88;;;15.06;30.51
60583;BME280;46415;47.536;19.066;2023-03-04T14:50:49;100055.31;;;14.19;31.66
60583;BME280;46415;47.536;19.066;2023-03-04T14:53:53;100049.16;;;13.79;32.15
60583;BME280;46415;47.536;19.066;2023-03-04T14:56:58;100054.03;;;13.57;32.45
60583;BME280;46415;47.536;19.066;2023-03-04T15:03:25;100061.47;;;14.18;32.83
60583;BME280;46415;47.536;19.066;2023-03-04T15:06:52;100068.94;;;14.78;32.17
60583;BME280;46415;47.536;19.066;2023-03-04T15:09:56;100058.03;;;15.11;31.18
60583;BME280;46415;47.536;19.066;2023-03-04T15:13:00;100061.13;;;14.91;30.87
60583;BME280;46415;47.536;19.066;2023-03-04T15:16:04;100064.50;;;15.43;30.55
60583;BME280;46415;47.536;19.066;2023-03-04T15:19:26;100061.47;;;15.49;30.07
60583;BME280;46415;47.536;19.066;2023-03-04T15:22:30;100062.44;;;16.10;29.62
60583;BME280;46415;47.536;19.066;2023-03-04T15:25:33;100058.88;;;15.37;30.95
60583;BME280;46415;47.536;19.066;2023-03-04T15:28:38;100055.53;;;16.33;30.02
60583;BME280;46415;47.536;19.066;2023-03-04T15:31:43;100041.50;;;16.82;29.21
60583;BME280;46415;47.536;19.066;2023-03-04T15:34:51;100048.22;;;16.97;28.76
60583;BME280;46415;47.536;19.066;2023-03-04T15:37:55;100046.53;;;15.64;30.51
60583;BME280;46415;47.536;19.066;2023-03-04T15:40:59;100039.47;;;16.50;29.91
60583;BME280;46415;47.536;19.066;2023-03-04T15:44:02;100042.88;;;15.29;30.81
60583;BME280;46415;47.536;19.066;2023-03-04T15:47:05;100046.41;;;15.02;30.96
60583;BME280;46415;47.536;19.066;2023-03-04T15:50:10;100046.31;;;15.04;30.94
60583;BME280;46415;47.536;19.066;2023-03-04T15:53:24;100038.56;;;13.68;32.60
60583;BME280;46415;47.536;19.066;2023-03-04T15:56:30;100036.75;;;11.75;35.44
60583;BME280;46415;47.536;19.066;2023-03-04T15:59:34;100049.75;;;10.39;38.43
60583;BME280;46415;47.536;19.066;2023-03-04T16:02:37;100044.63;;;9.83;39.61
60583;BME280;46415;47.536;19.066;2023-03-04T16:05:40;100033.72;;;9.37;40.42
60583;BME280;46415;47.536;19.066;2023-03-04T16:08:43;100032.03;;;8.97;40.99
60583;BME280;46415;47.536;19.066;2023-03-04T16:11:47;100026.94;;;8.54;42.20
60583;BME280;46415;47.536;19.066;2023-03-04T16:14:57;100012.91;;;8.39;42.16
60583;BME280;46415;47.536;19.066;2023-03-04T16:18:00;100021.91;;;8.07;42.73
60583;BME280;46415;47.536;19.066;2023-03-04T16:21:03;100026.31;;;7.82;43.34
60583;BME280;46415;47.536;19.066;2023-03-04T16:24:14;100022.12;;;7.79;43.60
60583;BME280;46415;47.536;19.066;2023-03-04T16:27:19;100017.25;;;7.72;43.93
60583;BME280;46415;47.536;19.066;2023-03-04T16:30:25;100026.50;;;7.54;44.49
60583;BME280;46415;47.536;19.066;2023-03-04T16:33:28;100035.41;;;7.46;44.91
60583;BME280;46415;47.536;19.066;2023-03-04T16:36:31;100029.72;;;7.37;45.38
60583;BME280;46415;47.536;19.066;2023-03-04T16:39:33;100030.81;;;7.30;45.82
60583;BME280;46415;47.536;19.066;2023-03-04T16:42:36;100044.22;;;7.17;46.18
60583;BME280;46415;47.536;19.066;2023-03-04T16:45:39;100044.69;;;7.03;46.55
60583;BME280;46415;47.536;19.066;2023-03-04T16:48:42;100042.38;;;6.95;46.73
60583;BME280;46415;47.536;19.066;2023-03-04T16:51:48;100051.50;;;6.79;47.61
60583;BME280;46415;47.536;19.066;2023-03-04T16:54:52;100047.72;;;6.65;47.73
60583;BME280;46415;47.536;19.066;2023-03-04T16:57:55;100046.03;;;6.64;48.34
60583;BME280;46415;47.536;19.066;2023-03-04T17:00:59;100050.00;;;6.47;49.03
60583;BME280;46415;47.536;19.066;2023-03-04T17:04:02;100053.00;;;6.34;49.64
60583;BME280;46415;47.536;19.066;2023-03-04T17:07:05;100059.16;;;6.56;49.21
60583;BME280;46415;47.536;19.066;2023-03-04T17:10:08;100054.00;;;6.56;48.93
60583;BME280;46415;47.536;19.066;2023-03-04T17:13:11;100059.91;;;6.60;48.57
60583;BME280;46415;47.536;19.066;2023-03-04T17:16:16;100061.03;;;6.51;48.46
60583;BME280;46415;47.536;19.066;2023-03-04T17:19:19;100059.50;;;6.45;48.92
60583;BME280;46415;47.536;19.066;2023-03-04T17:22:22;100062.38;;;6.36;49.42
60583;BME280;46415;47.536;19.066;2023-03-04T17:25:25;100059.94;;;6.32;49.31
60583;BME280;46415;47.536;19.066;2023-03-04T17:28:29;100061.75;;;6.30;49.75
60583;BME280;46415;47.536;19.066;2023-03-04T17:31:32;100062.12;;;6.18;49.86
60583;BME280;46415;47.536;19.066;2023-03-04T17:34:34;100058.19;;;6.06;50.66
60583;BME280;46415;47.536;19.066;2023-03-04T17:37:37;100061.94;;;6.24;49.92
60583;BME280;46415;47.536;19.066;2023-03-04T17:40:43;100063.00;;;6.17;50.29
60583;BME280;46415;47.536;19.066;2023-03-04T17:43:50;100060.06;;;6.01;50.77
60583;BME280;46415;47.536;19.066;2023-03-04T17:46:53;100056.44;;;6.06;51.00
60583;BME280;46415;47.536;19.066;2023-03-04T17:49:56;100066.25;;;5.95;51.59